Dubai, UAE

2:43 PM GST on February 14, 2016 (GMT +0400)
Satwa | | Change Station
CLOSE
Current Station
Personal Weather Station
Location: Dubai, DUBAI
Elevation: 13 ft
Nearby Weather Stations

Elev 13 ft 25.22 °N, 55.27 °E | Updated 16 seconds ago

Partly Cloudy
Partly Cloudy
72.3 °F
Feels Like 76 °F
N
0.4
Wind Variable Wind from NNE
Gusts 2.5 mph

Today
High -- | Low -- °F
--% Chance of Precip.
Yesterday
High -- | Low -- °F
Precip. -- in
Pressure 30.06 in
Visibility 6.2 miles
Clouds Few 2500 ft
Heat Index 76 °F
Dew Point 58 °F
Humidity 60%
Rainfall 0.00 in
Snow Depth Not available.
6:54 AM 6:11 PM
Waxing Crescent, 40% visible
METAR OMDB 141000Z 33010KT 300V010 9999 FEW025 23/14 Q1018 NOSIG
Pressure 30.06 in
Visibility 6.2 miles
Clouds Few 2500 ft
Heat Index 76 °F
Dew Point 58 °F
Humidity 60%
Rainfall 0.00 in
Snow Depth Not available.
6:54 AM 6:11 PM
Waxing Crescent, 40% visible
METAR OMDB 141000Z 33010KT 300V010 9999 FEW025 23/14 Q1018 NOSIG

10-Day Weather Forecast

No radar image for this location.
×

Almanac

Astronomy

Feb. 14, 2016 Rise Set
Actual Time
Civil Twilight
Nautical Twilight
Astronomical Twilight
Moon
Length of Visible Light
Length of Day
Tomorrow will be .
, % of the Moon is Illuminated

Today's Extremes

Country Highs Country Lows

Community

WunderPhotos

Upload Photos

1,892,765 photos uploaded!

WunderBlog® & News

Nearby

Air Quality

  Air Quality AQ Index Pollutant
Not available.

Snow Depth

Station Depth Elevation

Earthquake Activity

City Distance Mag. Time & Date
Minimum magnitude displayed is 2.5.

Coastal Water Temperatures

Place Temperature

Stations

Nearby Weather Stations

Station Location Temp. Windchill Dew Point Humidity Wind Precip. Elev Updated Type